Polar Endurance — WDG2085 — position and weather

sailwx.info

Track history (hours):
 
Tides and Currents Weather Stations Pressure Air Temp Water Temp Dewpoint Dewpoint Depression Visibility Wind Speed Wind Dir Waves Ship Positions

Polar Endurance

More information available from US FCC via Universal Licensing System and Coast Guard Vessel Documentation Center.

Last reported at 2014-Jul-22 23:23 UTC. Time now 2014-Jul-25 03:42 UTC.
Position N 47°59' W 122°13'.

Length 37 m.

Type: Towing. MMSI: 303144000.

Date/timePositionNaut miles runAvg speedWind from/ knotsBaromVisibWave heightAir tempDewpointWater temp
2014-Jul-22 23:23N 47°59' W 122°13'7 9.0
2014-Jul-22 22:34N 47°54' W 122°21'513.5
2014-Jul-22 22:10N 47°49' W 122°24'813.5
2014-Jul-22 21:33N 47°41' W 122°26'113.4
2014-Jul-22 21:30N 47°40' W 122°27'6 6.0
2014-Jul-22 20:33N 47°35' W 122°22'0 0.1
2014-Jul-22 20:30N 47°35' W 122°22'1 0.8
2014-Jul-22 19:33N 47°36' W 122°23'0 5.3
2014-Jul-22 19:30N 47°36' W 122°23'8 8.3
2014-Jul-22 18:33N 47°43' W 122°28'110.3
2014-Jul-22 18:30N 47°44' W 122°27'9 9.9
2014-Jul-22 17:33N 47°53' W 122°30'9 9.0
2014-Jul-22 16:33N 48°00' W 122°38'16 7.8
2014-Jul-22 14:31N 48°14' W 122°49'1010.8
2014-Jul-22 13:32N 48°25' W 122°45'1212.4
2014-Jul-22 12:33N 48°37' W 122°45'9 9.5
2014-Jul-22 11:33N 48°46' W 122°50'1010.2
2014-Jul-22 10:33N 48°52' W 123°03'1010.0
2014-Jul-22 09:33N 48°58' W 123°14'9 9.3
2014-Jul-22 08:33N 49°04' W 123°25'9 8.6
2014-Jul-22 07:33N 49°11' W 123°34'9 8.7
2014-Jul-22 06:33N 49°17' W 123°42'9 8.7
2014-Jul-22 05:32N 49°23' W 123°53'8 8.6
2014-Jul-22 04:33N 49°27' W 124°04'9 8.7
2014-Jul-22 03:33N 49°32' W 124°15'9 8.9
2014-Jul-22 02:33N 49°36' W 124°27'8 8.4
2014-Jul-22 01:33N 49°42' W 124°37'8 8.3
2014-Jul-22 00:33N 49°47' W 124°47'9 8.8
2014-Jul-21 23:33N 49°52' W 124°58'9 8.6
2014-Jul-21 22:31N 49°58' W 125°09'11 8.9
2014-Jul-21 21:16N 50°07' W 125°19'5 6.7
2014-Jul-21 20:28N 50°12' W 125°22'1 4.4
2014-Jul-21 20:16N 50°13' W 125°22'3 4.2
2014-Jul-21 19:33N 50°16' W 125°23'41 4.5
2014-Jul-21 10:30N 50°30' W 126°24'6 5.6
2014-Jul-21 09:26N 50°30' W 126°33'6 5.4
2014-Jul-21 08:16N 50°34' W 126°41'7 7.1
2014-Jul-21 07:17N 50°39' W 126°49'5 7.2
2014-Jul-21 06:33N 50°42' W 126°55'9 9.2
2014-Jul-21 05:33N 50°48' W 127°07'9 9.4
2014-Jul-21 04:32N 50°53' W 127°19'9 9.5
2014-Jul-21 03:33N 50°58' W 127°31'9 9.2
2014-Jul-21 02:33N 51°04' W 127°42'9 8.9
2014-Jul-21 01:31N 51°12' W 127°51'11 9.5
2014-Jul-21 00:23N 51°22' W 127°58'8 9.5
2014-Jul-20 23:32N 51°27' W 128°08'  
2014-Jul-18 11:24N 58°15' W 135°31'8 9.3
2014-Jul-18 10:33N 58°18' W 135°45'10 9.9
2014-Jul-18 09:33N 58°15' W 136°03'5 3.6
2014-Jul-18 08:07N 58°13' W 136°12'0 0.1
2014-Jul-18 07:31N 58°13' W 136°12'0 0.0
2014-Jul-18 06:32N 58°13' W 136°12'0 0.0
2014-Jul-18 04:31N 58°13' W 136°12'3 3.4
2014-Jul-18 03:32N 58°16' W 136°13'335 9.7
2014-Jul-16 17:00N 60°06' W 146°30'   030 / 131022.0 5.4 0.512.8 14.1
Track history (hours):
 
Tides and Currents Weather Stations Pressure Air Temp Water Temp Dewpoint Dewpoint Depression Visibility Wind Speed Wind Dir Waves Ship Positions

Polar Endurance

More information available from US FCC via Universal Licensing System and Coast Guard Vessel Documentation Center.

Last reported at 2014-Jul-22 23:23 UTC. Time now 2014-Jul-25 03:42 UTC.
Position N 47°59' W 122°13'.

Length 37 m.

Type: Towing. MMSI: 303144000.

Date/timePositionNaut miles runAvg speedWind from/ knotsBaromVisibWave heightAir tempDewpointWater temp
2014-Jul-22 23:23N 47°59' W 122°13'7 9.0
2014-Jul-22 22:34N 47°54' W 122°21'513.5
2014-Jul-22 22:10N 47°49' W 122°24'813.5
2014-Jul-22 21:33N 47°41' W 122°26'113.4
2014-Jul-22 21:30N 47°40' W 122°27'6 6.0
2014-Jul-22 20:33N 47°35' W 122°22'0 0.1
2014-Jul-22 20:30N 47°35' W 122°22'1 0.8
2014-Jul-22 19:33N 47°36' W 122°23'0 5.3
2014-Jul-22 19:30N 47°36' W 122°23'8 8.3
2014-Jul-22 18:33N 47°43' W 122°28'110.3
2014-Jul-22 18:30N 47°44' W 122°27'9 9.9
2014-Jul-22 17:33N 47°53' W 122°30'9 9.0
2014-Jul-22 16:33N 48°00' W 122°38'16 7.8
2014-Jul-22 14:31N 48°14' W 122°49'1010.8
2014-Jul-22 13:32N 48°25' W 122°45'1212.4
2014-Jul-22 12:33N 48°37' W 122°45'9 9.5
2014-Jul-22 11:33N 48°46' W 122°50'1010.2
2014-Jul-22 10:33N 48°52' W 123°03'1010.0
2014-Jul-22 09:33N 48°58' W 123°14'9 9.3
2014-Jul-22 08:33N 49°04' W 123°25'9 8.6
2014-Jul-22 07:33N 49°11' W 123°34'9 8.7
2014-Jul-22 06:33N 49°17' W 123°42'9 8.7
2014-Jul-22 05:32N 49°23' W 123°53'8 8.6
2014-Jul-22 04:33N 49°27' W 124°04'9 8.7
2014-Jul-22 03:33N 49°32' W 124°15'9 8.9
2014-Jul-22 02:33N 49°36' W 124°27'8 8.4
2014-Jul-22 01:33N 49°42' W 124°37'8 8.3
2014-Jul-22 00:33N 49°47' W 124°47'9 8.8
2014-Jul-21 23:33N 49°52' W 124°58'9 8.6
2014-Jul-21 22:31N 49°58' W 125°09'11 8.9
2014-Jul-21 21:16N 50°07' W 125°19'5 6.7
2014-Jul-21 20:28N 50°12' W 125°22'1 4.4
2014-Jul-21 20:16N 50°13' W 125°22'3 4.2
2014-Jul-21 19:33N 50°16' W 125°23'41 4.5
2014-Jul-21 10:30N 50°30' W 126°24'6 5.6
2014-Jul-21 09:26N 50°30' W 126°33'6 5.4
2014-Jul-21 08:16N 50°34' W 126°41'7 7.1
2014-Jul-21 07:17N 50°39' W 126°49'5 7.2
2014-Jul-21 06:33N 50°42' W 126°55'9 9.2
2014-Jul-21 05:33N 50°48' W 127°07'9 9.4
2014-Jul-21 04:32N 50°53' W 127°19'9 9.5
2014-Jul-21 03:33N 50°58' W 127°31'9 9.2
2014-Jul-21 02:33N 51°04' W 127°42'9 8.9
2014-Jul-21 01:31N 51°12' W 127°51'11 9.5
2014-Jul-21 00:23N 51°22' W 127°58'8 9.5
2014-Jul-20 23:32N 51°27' W 128°08'  
2014-Jul-18 11:24N 58°15' W 135°31'8 9.3
2014-Jul-18 10:33N 58°18' W 135°45'10 9.9
2014-Jul-18 09:33N 58°15' W 136°03'5 3.6
2014-Jul-18 08:07N 58°13' W 136°12'0 0.1
2014-Jul-18 07:31N 58°13' W 136°12'0 0.0
2014-Jul-18 06:32N 58°13' W 136°12'0 0.0
2014-Jul-18 04:31N 58°13' W 136°12'3 3.4
2014-Jul-18 03:32N 58°16' W 136°13'335 9.7
2014-Jul-16 17:00N 60°06' W 146°30'   030 / 131022.0 5.4 0.512.8 14.1

Dump ship's entire track history